Time;durP1;ratioP1;P1;durP2;ratioP2;P2;SDS_P1;SDS_P2;PMS_P1;PMS_P2;Temp;Humidity;BMP_temperature;BMP_pressure;BME280_temperature;BME280_humidity;BME280_pressure;Samples;Min_cycle;Max_cycle;Signal;HPM_P1;HPM_P2
2022/10/11 00:01:55;;;;;;;0.40;0.40;;;7.30;88.90;;;;;;6211333;23;20075;-75
2022/10/11 00:04:21;;;;;;;0.47;0.47;;;7.20;88.90;;;;;;6211926;23;20023;-75
2022/10/11 00:06:47;;;;;;;0.85;0.40;;;7.20;88.90;;;;;;6211135;23;20023;-75
2022/10/11 00:09:14;;;;;;;0.40;0.40;;;7.10;88.90;;;;;;6211463;23;20020;-75
2022/10/11 00:11:40;;;;;;;0.55;0.47;;;7.10;88.90;;;;;;6211386;23;20020;-75
2022/10/11 00:14:06;;;;;;;0.30;0.30;;;7.20;88.90;;;;;;6208853;23;20008;-75
2022/10/11 00:16:32;;;;;;;1.02;0.60;;;7.10;88.80;;;;;;6186194;23;20017;-75
2022/10/11 00:18:59;;;;;;;0.38;0.38;;;7.00;88.80;;;;;;6211458;23;20016;-76
2022/10/11 00:21:24;;;;;;;0.60;0.40;;;6.90;88.80;;;;;;6181082;23;20013;-75
2022/10/11 00:23:51;;;;;;;0.60;0.50;;;7.10;88.90;;;;;;6211970;23;20104;-76
2022/10/11 00:26:17;;;;;;;0.70;0.40;;;7.00;88.90;;;;;;6186012;23;20013;-75
2022/10/11 00:28:42;;;;;;;1.27;0.40;;;7.00;88.90;;;;;;6260230;22;20019;-75
2022/10/11 00:31:12;;;;;;;0.80;0.50;;;6.90;88.90;;;;;;6274820;22;20432;-75
2022/10/11 00:33:38;;;;;;;0.80;0.55;;;6.90;88.90;;;;;;6247754;22;20451;-76
2022/10/11 00:36:04;;;;;;;0.35;0.35;;;6.90;88.90;;;;;;6223218;22;20019;-75
2022/10/11 00:38:31;;;;;;;0.30;0.30;;;6.90;88.90;;;;;;6275483;22;20075;-75
2022/10/11 00:40:56;;;;;;;0.32;0.30;;;6.80;88.90;;;;;;6274701;22;20012;-76
2022/10/11 00:43:25;;;;;;;0.50;0.50;;;6.80;88.90;;;;;;6274562;22;20035;-76
2022/10/11 00:46:03;;;;;;;0.38;0.30;;;6.80;88.90;;;;;;6247566;22;20007;-75
2022/10/11 00:48:39;;;;;;;0.63;0.43;;;6.80;88.90;;;;;;6247404;22;20022;-75
2022/10/11 00:51:21;;;;;;;0.50;0.50;;;6.80;88.90;;;;;;6275576;22;20043;-75
2022/10/11 00:53:49;;;;;;;0.70;0.38;;;6.70;88.80;;;;;;6276514;22;20332;-75
2022/10/11 00:56:24;;;;;;;0.75;0.43;;;6.70;88.90;;;;;;6248948;22;20008;-75
2022/10/11 00:58:51;;;;;;;0.63;0.45;;;6.70;88.90;;;;;;6276507;22;20331;-76
2022/10/11 01:01:17;;;;;;;0.28;0.28;;;6.80;88.90;;;;;;6223471;22;20022;-76
2022/10/11 01:03:43;;;;;;;0.40;0.30;;;6.70;89.40;;;;;;6276027;22;20086;-76
2022/10/11 01:06:09;;;;;;;0.30;0.30;;;6.70;88.80;;;;;;6276414;22;20441;-76
2022/10/11 01:08:36;;;;;;;0.40;0.40;;;6.70;88.80;;;;;;6276376;22;20015;-76
2022/10/11 01:11:02;;;;;;;0.63;0.30;;;6.60;88.80;;;;;;6276516;22;20008;-76
2022/10/11 01:13:48;;;;;;;0.50;0.47;;;6.60;88.80;;;;;;6248525;22;20007;-76
2022/10/11 01:16:25;;;;;;;2.50;0.40;;;6.60;88.80;;;;;;6275725;22;20004;-75
2022/10/11 01:19:22;;;;;;;0.73;0.50;;;6.60;88.80;;;;;;6275432;22;20042;-75
2022/10/11 01:22:02;;;;;;;0.55;0.40;;;6.60;88.90;;;;;;6255797;22;20015;-76
2022/10/11 01:24:50;;;;;;;0.30;0.30;;;6.60;88.80;;;;;;6217958;23;20363;-76
2022/10/11 01:27:33;;;;;;;0.70;0.40;;;6.60;88.80;;;;;;6267716;22;20068;-76
2022/10/11 01:30:25;;;;;;;0.43;0.30;;;6.60;88.70;;;;;;6248209;22;20428;-76
2022/10/11 01:33:24;;;;;;;0.50;0.50;;;6.60;88.60;;;;;;6276252;22;20011;-76
2022/10/11 01:36:14;;;;;;;0.57;0.30;;;6.60;88.60;;;;;;6252910;22;20004;-75
2022/10/11 01:38:47;;;;;;;0.30;0.30;;;6.60;88.70;;;;;;6254341;22;20014;-75
2022/10/11 01:41:18;;;;;;;0.20;0.20;;;6.70;88.80;;;;;;6248757;22;20012;-75
2022/10/11 01:43:45;;;;;;;0.38;0.38;;;6.70;88.70;;;;;;6276394;22;20007;-76
2022/10/11 01:46:12;;;;;;;0.35;0.30;;;6.60;88.60;;;;;;6248836;22;20020;-76
2022/10/11 01:48:56;;;;;;;0.63;0.32;;;6.60;88.60;;;;;;6275553;22;20015;-75
2022/10/11 01:51:26;;;;;;;0.88;0.40;;;6.60;88.70;;;;;;6248645;22;20030;-76
2022/10/11 01:54:06;;;;;;;0.88;0.40;;;6.60;88.70;;;;;;6248400;22;20032;-76
2022/10/11 01:57:05;;;;;;;0.93;0.20;;;6.60;88.90;;;;;;6275692;22;20064;-76
2022/10/11 02:00:05;;;;;;;0.77;0.50;;;6.60;88.80;;;;;;6275516;22;20018;-76
2022/10/11 02:02:51;;;;;;;0.47;0.30;;;6.60;88.80;;;;;;6227237;22;20020;-76
2022/10/11 02:05:37;;;;;;;0.30;0.20;;;6.40;88.60;;;;;;6248674;22;20018;-75
2022/10/11 02:08:14;;;;;;;0.43;0.40;;;6.60;88.80;;;;;;6248258;22;20014;-76
2022/10/11 02:10:47;;;;;;;0.30;0.20;;;6.50;88.80;;;;;;6276217;22;20004;-75
2022/10/11 02:13:24;;;;;;;0.47;0.30;;;6.40;88.80;;;;;;6275438;22;20313;-76
2022/10/11 02:15:52;;;;;;;0.32;0.32;;;6.40;88.80;;;;;;6276288;22;20301;-75
2022/10/11 02:18:23;;;;;;;0.20;0.20;;;6.40;88.90;;;;;;6223414;22;20016;-75
2022/10/11 02:20:50;;;;;;;0.30;0.30;;;6.40;89.00;;;;;;6276258;22;20068;-75
2022/10/11 02:23:22;;;;;;;0.20;0.20;;;6.30;88.90;;;;;;6248069;22;20336;-75
2022/10/11 02:25:48;;;;;;;;;;;6.40;89.00;;;;;;6249273;22;20008;-75
2022/10/11 02:28:20;;;;;;;0.25;0.25;;;6.30;88.90;;;;;;6275490;22;19911;-76
2022/10/11 02:30:49;;;;;;;0.73;0.30;;;6.40;88.90;;;;;;6248266;22;20019;-76
2022/10/11 02:33:20;;;;;;;0.52;0.40;;;6.30;88.80;;;;;;6248709;22;20007;-76
2022/10/11 02:35:52;;;;;;;0.90;0.43;;;6.20;88.90;;;;;;6275396;22;20004;-75
2022/10/11 02:38:23;;;;;;;0.40;0.30;;;6.30;89.00;;;;;;6250214;22;20003;-75
2022/10/11 02:40:57;;;;;;;0.68;0.35;;;6.20;89.00;;;;;;6222856;22;20051;-76
2022/10/11 02:43:31;;;;;;;0.28;0.20;;;6.10;89.00;;;;;;6276162;22;20034;-76
2022/10/11 02:45:59;;;;;;;0.25;0.20;;;6.20;89.00;;;;;;6249298;22;20428;-75
2022/10/11 02:48:28;;;;;;;0.40;0.40;;;6.10;89.00;;;;;;6248708;22;20083;-75
2022/10/11 02:50:55;;;;;;;0.50;0.43;;;6.10;89.00;;;;;;6233323;22;20004;-75
2022/10/11 02:53:22;;;;;;;0.30;0.30;;;6.10;89.00;;;;;;6275568;22;20004;-75
2022/10/11 02:55:50;;;;;;;0.35;0.35;;;6.10;89.00;;;;;;6275324;22;20003;-75
2022/10/11 02:58:16;;;;;;;0.40;0.30;;;6.10;89.00;;;;;;6248914;22;20331;-75
2022/10/11 03:00:42;;;;;;;0.52;0.30;;;6.10;89.10;;;;;;6248623;22;20090;-75
2022/10/11 03:03:08;;;;;;;0.47;0.32;;;6.10;89.10;;;;;;6276112;22;20083;-75
2022/10/11 03:05:40;;;;;;;0.90;0.30;;;6.00;89.00;;;;;;6248279;22;20039;-75
2022/10/11 03:08:09;;;;;;;0.32;0.32;;;6.00;89.00;;;;;;6225806;22;20094;-75
2022/10/11 03:10:35;;;;;;;0.50;0.40;;;6.10;89.00;;;;;;6223665;22;20004;-75
2022/10/11 03:13:02;;;;;;;0.50;0.40;;;6.10;89.10;;;;;;6274995;22;20012;-75
2022/10/11 03:15:27;;;;;;;0.30;0.30;;;6.00;89.00;;;;;;6248598;22;20004;-75
2022/10/11 03:17:54;;;;;;;0.38;0.38;;;6.00;89.00;;;;;;6275053;22;20003;-75
2022/10/11 03:20:20;;;;;;;0.40;0.40;;;6.00;89.00;;;;;;6275535;22;20013;-76
2022/10/11 03:22:45;;;;;;;0.40;0.40;;;6.00;89.00;;;;;;6248841;22;20027;-75
2022/10/11 03:25:11;;;;;;;0.32;0.20;;;6.00;89.00;;;;;;6247946;22;20053;-75
2022/10/11 03:27:37;;;;;;;0.63;0.40;;;6.10;89.10;;;;;;6275892;22;20436;-76
2022/10/11 03:30:04;;;;;;;0.40;0.40;;;6.00;89.00;;;;;;6275135;22;20011;-75
2022/10/11 03:32:30;;;;;;;1.48;0.40;;;6.00;88.90;;;;;;6275234;22;20463;-76
2022/10/11 03:34:56;;;;;;;0.47;0.30;;;6.10;89.10;;;;;;6275438;22;20004;-76
2022/10/11 03:37:22;;;;;;;0.32;0.32;;;6.00;88.90;;;;;;6275913;22;20007;-76
2022/10/11 03:39:47;;;;;;;0.38;0.38;;;6.00;88.90;;;;;;6275265;22;20042;-75
2022/10/11 03:42:13;;;;;;;0.30;0.30;;;6.00;88.90;;;;;;6248419;22;20299;-76
2022/10/11 03:44:40;;;;;;;0.63;0.35;;;6.00;88.90;;;;;;6248305;22;20061;-75
2022/10/11 03:47:07;;;;;;;0.52;0.43;;;6.10;88.90;;;;;;6247901;22;20343;-75
2022/10/11 03:49:33;;;;;;;0.38;0.28;;;6.10;88.90;;;;;;6275009;22;20012;-76
2022/10/11 03:51:59;;;;;;;0.50;0.30;;;6.10;88.80;;;;;;6222690;22;20014;-75
2022/10/11 03:54:25;;;;;;;0.17;0.17;;;6.20;88.80;;;;;;6248063;22;20016;-75
2022/10/11 03:56:51;;;;;;;0.30;0.30;;;6.10;88.60;;;;;;6275674;22;20436;-75
2022/10/11 03:59:17;;;;;;;0.38;0.38;;;6.20;88.70;;;;;;6245470;22;20015;-76
2022/10/11 04:01:42;;;;;;;0.30;0.20;;;6.30;88.70;;;;;;6222754;22;20007;-76
2022/10/11 04:04:09;;;;;;;0.35;0.35;;;6.30;88.70;;;;;;6275205;22;20008;-75
2022/10/11 04:06:34;;;;;;;0.30;0.30;;;6.30;88.70;;;;;;6217654;22;20066;-75
2022/10/11 04:09:00;;;;;;;0.55;0.10;;;6.30;88.60;;;;;;6248228;22;20015;-75
2022/10/11 04:11:26;;;;;;;1.38;0.43;;;6.30;88.60;;;;;;6275488;22;20395;-75
2022/10/11 04:13:52;;;;;;;0.63;0.38;;;6.30;88.60;;;;;;6223811;22;20094;-75
2022/10/11 04:16:20;;;;;;;0.20;0.20;;;6.40;88.50;;;;;;6249279;22;20070;-75
2022/10/11 04:18:57;;;;;;;0.40;0.20;;;6.40;88.60;;;;;;6249062;22;20092;-74
2022/10/11 04:21:24;;;;;;;0.30;0.30;;;6.40;88.50;;;;;;6276192;22;19999;-75
2022/10/11 04:23:51;;;;;;;0.40;0.40;;;6.40;88.50;;;;;;6275291;22;20057;-74
2022/10/11 04:26:17;;;;;;;0.30;0.30;;;6.40;88.60;;;;;;6222676;22;20440;-74
2022/10/11 04:28:51;;;;;;;0.30;0.30;;;6.40;88.60;;;;;;6275177;22;20015;-74
2022/10/11 04:31:17;;;;;;;0.30;0.30;;;6.40;88.60;;;;;;6227213;22;20444;-77
2022/10/11 04:33:43;;;;;;;0.32;0.32;;;6.40;88.60;;;;;;6275363;22;20004;-77
2022/10/11 04:36:09;;;;;;;0.30;0.30;;;6.50;88.60;;;;;;6224033;22;20007;-77
2022/10/11 04:38:34;;;;;;;0.70;0.57;;;6.50;88.60;;;;;;6248461;22;20015;-74
2022/10/11 04:41:09;;;;;;;0.30;0.22;;;6.60;88.60;;;;;;6275508;22;20012;-75
2022/10/11 04:43:35;;;;;;;0.30;0.30;;;6.60;88.50;;;;;;6275164;22;20007;-74
2022/10/11 04:46:01;;;;;;;0.30;0.30;;;6.60;88.50;;;;;;6248848;22;20095;-74
2022/10/11 04:48:27;;;;;;;0.30;0.30;;;6.60;88.50;;;;;;6275017;22;20035;-75
2022/10/11 04:50:52;;;;;;;0.40;0.40;;;6.70;88.60;;;;;;6275161;22;20003;-74
2022/10/11 04:53:18;;;;;;;0.70;0.45;;;6.60;88.60;;;;;;6275381;22;20015;-75
2022/10/11 04:55:54;;;;;;;0.30;0.30;;;6.60;88.50;;;;;;6222648;22;20004;-75
2022/10/11 04:58:20;;;;;;;0.38;0.38;;;6.60;88.50;;;;;;6247351;22;20019;-75
2022/10/11 05:00:45;;;;;;;0.77;0.50;;;6.60;88.60;;;;;;6248480;22;20451;-75
2022/10/11 05:03:11;;;;;;;0.30;0.30;;;6.60;89.30;;;;;;6275809;22;20004;-75
2022/10/11 05:05:36;;;;;;;0.32;0.32;;;6.60;88.70;;;;;;6275227;22;20011;-75
2022/10/11 05:08:02;;;;;;;0.30;0.30;;;6.60;88.70;;;;;;6274876;22;20431;-75
2022/10/11 05:10:28;;;;;;;0.40;0.20;;;6.60;88.70;;;;;;6275761;22;20411;-76
2022/10/11 05:12:54;;;;;;;0.32;0.30;;;6.60;88.80;;;;;;6248127;22;20007;-75
2022/10/11 05:15:19;;;;;;;1.08;0.40;;;6.60;89.50;;;;;;6222420;22;20011;-75
2022/10/11 05:17:45;;;;;;;0.68;0.47;;;6.60;88.90;;;;;;6275067;22;20008;-76
2022/10/11 05:20:11;;;;;;;0.98;0.43;;;6.50;88.90;;;;;;6244628;22;20016;-77
2022/10/11 05:22:37;;;;;;;0.52;0.30;;;6.50;89.00;;;;;;6222331;22;20019;-77
2022/10/11 05:25:03;;;;;;;0.40;0.40;;;6.40;89.00;;;;;;6247512;22;20012;-76
2022/10/11 05:27:29;;;;;;;0.38;0.30;;;6.50;89.10;;;;;;6275551;22;20085;-76
2022/10/11 05:29:54;;;;;;;0.30;0.30;;;6.50;89.10;;;;;;6247662;22;20332;-76
2022/10/11 05:32:20;;;;;;;0.32;0.30;;;6.50;89.70;;;;;;6274790;22;20007;-76
2022/10/11 05:34:46;;;;;;;0.68;0.45;;;6.50;89.20;;;;;;6275203;22;20008;-76
2022/10/11 05:37:11;;;;;;;0.57;0.50;;;6.40;89.10;;;;;;6276273;22;20327;-77
2022/10/11 05:39:37;;;;;;;0.20;0.20;;;6.40;89.10;;;;;;6276152;22;20061;-77
2022/10/11 05:42:03;;;;;;;0.95;0.63;;;6.30;89.20;;;;;;6276848;22;20015;-76
2022/10/11 05:44:29;;;;;;;0.40;0.40;;;6.40;89.30;;;;;;6250013;22;20336;-76
2022/10/11 05:46:55;;;;;;;0.40;0.40;;;6.30;89.30;;;;;;6276125;22;20094;-76
2022/10/11 05:49:20;;;;;;;0.52;0.40;;;6.30;89.40;;;;;;6275993;22;20340;-76
2022/10/11 05:51:46;;;;;;;0.30;0.30;;;6.30;89.40;;;;;;6249066;22;20033;-76
2022/10/11 05:54:13;;;;;;;0.50;0.40;;;6.30;89.40;;;;;;6275947;22;20065;-77
2022/10/11 05:56:38;;;;;;;0.75;0.55;;;6.20;89.40;;;;;;6276426;22;20086;-76
2022/10/11 05:59:05;;;;;;;0.30;0.30;;;6.20;89.30;;;;;;6276699;22;20320;-76
2022/10/11 06:01:31;;;;;;;0.40;0.40;;;6.20;89.40;;;;;;6246166;22;20016;-76
2022/10/11 06:03:57;;;;;;;0.40;0.40;;;6.20;89.40;;;;;;6276794;22;20053;-76
2022/10/11 06:06:22;;;;;;;0.47;0.30;;;6.20;89.40;;;;;;6276730;22;20011;-76
2022/10/11 06:08:48;;;;;;;0.40;0.40;;;6.10;89.30;;;;;;6248703;22;20008;-77
2022/10/11 06:11:18;;;;;;;0.57;0.40;;;6.10;89.40;;;;;;6276080;22;20483;-77
2022/10/11 06:13:43;;;;;;;0.65;0.40;;;6.20;89.50;;;;;;6276295;22;20003;-76
2022/10/11 06:16:10;;;;;;;0.20;0.20;;;6.20;89.50;;;;;;6249644;22;20328;-77
2022/10/11 06:18:36;;;;;;;0.28;0.28;;;6.10;89.40;;;;;;6277469;22;20015;-76
2022/10/11 06:21:02;;;;;;;0.30;0.30;;;6.10;89.50;;;;;;6245494;22;20011;-75
2022/10/11 06:23:28;;;;;;;0.40;0.38;;;6.10;89.50;;;;;;6275892;22;20018;-77
2022/10/11 06:26:04;;;;;;;0.30;0.30;;;6.20;89.50;;;;;;6276217;22;20323;-76
2022/10/11 06:28:31;;;;;;;0.40;0.40;;;6.20;89.40;;;;;;6248549;22;20019;-76
2022/10/11 06:30:57;;;;;;;1.50;0.68;;;6.20;89.30;;;;;;6249276;22;20011;-77
2022/10/11 06:33:23;;;;;;;0.55;0.40;;;6.30;89.90;;;;;;6276135;22;20458;-77
2022/10/11 06:35:55;;;;;;;1.05;0.43;;;6.20;89.20;;;;;;6248814;22;20004;-77
2022/10/11 06:38:21;;;;;;;0.38;0.30;;;6.30;89.20;;;;;;6276280;22;20011;-76
2022/10/11 06:40:46;;;;;;;1.00;0.50;;;6.40;89.10;;;;;;6275889;22;20383;-77
2022/10/11 06:43:12;;;;;;;0.65;0.40;;;6.40;89.10;;;;;;6276277;22;20011;-76
2022/10/11 06:45:38;;;;;;;0.60;0.60;;;6.30;88.90;;;;;;6276513;22;20018;-77
2022/10/11 06:48:04;;;;;;;0.40;0.40;;;6.50;88.90;;;;;;6276411;22;20012;-76
2022/10/11 06:50:31;;;;;;;0.52;0.52;;;6.50;88.90;;;;;;6223394;22;20022;-76
2022/10/11 06:52:57;;;;;;;1.55;0.47;;;6.60;88.80;;;;;;6249366;22;20043;-76
2022/10/11 06:55:23;;;;;;;0.65;0.38;;;6.60;88.70;;;;;;6275792;22;20008;-76
2022/10/11 06:57:49;;;;;;;1.65;0.40;;;6.70;88.70;;;;;;6276307;22;20087;-76
2022/10/11 07:00:16;;;;;;;0.50;0.38;;;6.80;88.60;;;;;;6276618;22;20014;-76
2022/10/11 07:02:41;;;;;;;0.43;0.30;;;6.90;88.60;;;;;;6275902;22;20011;-76
2022/10/11 07:05:08;;;;;;;0.43;0.43;;;6.90;88.50;;;;;;6275998;22;20313;-76
2022/10/11 07:07:33;;;;;;;0.75;0.50;;;7.00;88.40;;;;;;6223479;22;20020;-76
2022/10/11 07:09:59;;;;;;;0.40;0.40;;;7.10;88.40;;;;;;6275672;22;20462;-76
2022/10/11 07:12:25;;;;;;;1.10;0.50;;;7.20;88.30;;;;;;6248636;22;20339;-77
2022/10/11 07:14:51;;;;;;;0.50;0.50;;;7.40;88.20;;;;;;6248472;22;20019;-76
2022/10/11 07:17:16;;;;;;;1.02;0.47;;;7.30;88.00;;;;;;6247134;22;20004;-76
2022/10/11 07:19:42;;;;;;;0.93;0.63;;;7.50;88.00;;;;;;6276164;22;20014;-77
2022/10/11 07:22:08;;;;;;;1.65;0.43;;;7.50;87.90;;;;;;6220381;22;20336;-76
2022/10/11 07:24:33;;;;;;;0.63;0.40;;;7.50;87.90;;;;;;6276218;22;20019;-77
2022/10/11 07:26:59;;;;;;;0.80;0.60;;;7.50;87.90;;;;;;6221411;22;20043;-77
2022/10/11 07:29:25;;;;;;;0.47;0.40;;;7.60;87.90;;;;;;6275995;22;20340;-76
2022/10/11 07:31:50;;;;;;;0.65;0.30;;;7.70;87.90;;;;;;6276209;22;20011;-76
2022/10/11 07:34:16;;;;;;;0.43;0.43;;;7.80;87.80;;;;;;6275833;22;20493;-76
2022/10/11 07:36:42;;;;;;;0.60;0.40;;;7.80;87.80;;;;;;6275841;22;20008;-76
2022/10/11 07:39:08;;;;;;;0.47;0.47;;;7.90;87.80;;;;;;6248699;22;20339;-76
2022/10/11 07:41:35;;;;;;;0.45;0.40;;;8.00;87.80;;;;;;6248446;22;20012;-76
2022/10/11 07:44:02;;;;;;;0.90;0.50;;;8.00;87.70;;;;;;6249055;22;20314;-76
2022/10/11 07:46:27;;;;;;;0.30;0.30;;;8.10;87.70;;;;;;6275769;22;20428;-76
2022/10/11 07:48:53;;;;;;;0.43;0.30;;;8.20;87.80;;;;;;6275648;22;20008;-76
2022/10/11 07:51:21;;;;;;;0.40;0.40;;;8.30;87.70;;;;;;6275672;22;20468;-76
2022/10/11 07:53:51;;;;;;;0.95;0.57;;;8.30;87.70;;;;;;6247083;22;20008;-76
2022/10/11 07:56:20;;;;;;;0.30;0.30;;;8.40;87.70;;;;;;6276173;22;20004;-76
2022/10/11 07:58:52;;;;;;;1.20;0.60;;;8.40;87.60;;;;;;6248165;22;20347;-76
2022/10/11 08:01:18;;;;;;;0.90;0.40;;;8.50;88.30;;;;;;6276200;22;20061;-76
2022/10/11 08:03:44;;;;;;;0.40;0.40;;;8.60;87.70;;;;;;6275906;22;20038;-76
2022/10/11 08:06:13;;;;;;;0.88;0.50;;;8.60;87.60;;;;;;6248609;22;20008;-76
2022/10/11 08:08:39;;;;;;;0.50;0.40;;;8.70;87.60;;;;;;6275354;22;20506;-76
2022/10/11 08:11:05;;;;;;;0.52;0.40;;;8.80;87.60;;;;;;6275395;22;20035;-76
2022/10/11 08:13:31;;;;;;;0.52;0.30;;;8.80;87.60;;;;;;6276046;22;20003;-75
2022/10/11 08:15:57;;;;;;;0.43;0.40;;;8.90;87.60;;;;;;6275618;22;20007;-75
2022/10/11 08:18:23;;;;;;;0.40;0.40;;;8.90;87.60;;;;;;6276048;22;20082;-75
2022/10/11 08:20:49;;;;;;;0.70;0.60;;;9.00;87.60;;;;;;6276230;22;20003;-76
2022/10/11 08:23:16;;;;;;;0.88;0.47;;;9.00;87.60;;;;;;6275480;22;20031;-76
2022/10/11 08:25:44;;;;;;;1.13;0.60;;;9.20;87.60;;;;;;6276091;22;20042;-76
2022/10/11 08:28:15;;;;;;;0.60;0.40;;;9.20;87.50;;;;;;6275428;22;20056;-77
2022/10/11 08:30:50;;;;;;;0.80;0.40;;;9.20;87.50;;;;;;6249190;22;20370;-77
2022/10/11 08:33:17;;;;;;;1.67;0.40;;;9.20;87.50;;;;;;6248277;22;20008;-76
2022/10/11 08:35:44;;;;;;;1.02;0.63;;;9.40;87.50;;;;;;6223429;22;20486;-75
2022/10/11 08:38:10;;;;;;;0.50;0.50;;;9.50;87.50;;;;;;6248782;22;20007;-76
2022/10/11 08:40:36;;;;;;;0.45;0.45;;;9.60;87.60;;;;;;6275268;22;20064;-75
2022/10/11 08:43:05;;;;;;;0.65;0.47;;;9.50;87.50;;;;;;6220192;22;20082;-76
2022/10/11 08:45:41;;;;;;;0.75;0.50;;;9.60;87.60;;;;;;6247950;22;20033;-76
2022/10/11 08:48:33;;;;;;;0.73;0.43;;;9.70;87.60;;;;;;6275183;22;20015;-76
2022/10/11 08:51:00;;;;;;;0.55;0.40;;;9.70;87.50;;;;;;6247750;22;20007;-76
2022/10/11 08:53:45;;;;;;;0.95;0.52;;;9.80;87.40;;;;;;6248218;22;20035;-76
2022/10/11 08:56:13;;;;;;;0.88;0.55;;;9.90;87.40;;;;;;6274942;22;20057;-76
2022/10/11 08:58:53;;;;;;;0.80;0.40;;;9.90;87.30;;;;;;6275394;22;20042;-76
2022/10/11 09:01:23;;;;;;;1.25;0.50;;;10.00;87.30;;;;;;6275690;22;20424;-76
2022/10/11 09:03:50;;;;;;;1.00;0.50;;;10.10;87.20;;;;;;6224102;22;20012;-75
2022/10/11 09:06:32;;;;;;;0.68;0.43;;;10.20;87.20;;;;;;6248595;22;20077;-76
2022/10/11 09:09:22;;;;;;;0.88;0.70;;;10.20;87.10;;;;;;6248309;22;20015;-76
2022/10/11 09:12:18;;;;;;;1.35;0.30;;;10.30;87.10;;;;;;6248515;22;20458;-76
2022/10/11 09:15:02;;;;;;;0.88;0.57;;;10.40;87.10;;;;;;6276518;22;20016;-76
2022/10/11 09:17:59;;;;;;;1.02;0.40;;;10.40;87.00;;;;;;6250421;22;20004;-76
2022/10/11 09:20:59;;;;;;;1.70;0.50;;;10.40;86.80;;;;;;6248748;22;20066;-76
2022/10/11 09:23:42;;;;;;;1.02;0.35;;;10.50;86.90;;;;;;6276529;22;20007;-76
2022/10/11 09:26:24;;;;;;;1.35;0.30;;;10.60;86.80;;;;;;6276716;22;20090;-76
2022/10/11 09:29:07;;;;;;;0.85;0.38;;;10.60;86.80;;;;;;6276016;22;20483;-76
2022/10/11 09:31:33;;;;;;;0.40;0.40;;;10.60;86.80;;;;;;6251495;22;20015;-76
2022/10/11 09:34:09;;;;;;;0.40;0.40;;;10.70;86.80;;;;;;6276708;22;20082;-76
2022/10/11 09:37:10;;;;;;;0.20;0.20;;;10.80;86.80;;;;;;6249162;22;20035;-76
2022/10/11 09:39:44;;;;;;;1.08;0.45;;;10.80;86.80;;;;;;6275775;22;20332;-76
2022/10/11 09:42:10;;;;;;;0.73;0.57;;;10.80;86.70;;;;;;6276558;22;20018;-75
2022/10/11 09:44:45;;;;;;;0.82;0.50;;;11.00;86.70;;;;;;6275911;22;20092;-75
2022/10/11 09:47:16;;;;;;;0.40;0.40;;;11.00;86.60;;;;;;6276447;22;20008;-75
2022/10/11 09:49:50;;;;;;;1.20;0.38;;;11.00;86.50;;;;;;6248925;22;20396;-76
2022/10/11 09:52:20;;;;;;;0.75;0.20;;;11.10;86.40;;;;;;6249105;22;20369;-76
2022/10/11 09:54:50;;;;;;;0.73;0.40;;;11.20;86.40;;;;;;6275890;22;20011;-75
2022/10/11 09:57:21;;;;;;;1.00;0.47;;;11.20;86.30;;;;;;6248980;22;20007;-76
2022/10/11 10:00:19;;;;;;;0.60;0.40;;;11.20;86.20;;;;;;6249711;22;20008;-75
2022/10/11 10:02:48;;;;;;;0.95;0.50;;;11.30;86.10;;;;;;6275843;22;20058;-76
2022/10/11 10:05:19;;;;;;;0.40;0.32;;;11.40;85.90;;;;;;6223621;22;20018;-75
2022/10/11 10:08:01;;;;;;;0.57;0.40;;;11.40;86.40;;;;;;6276564;22;20012;-76
2022/10/11 10:10:39;;;;;;;0.38;0.38;;;11.50;85.80;;;;;;6276493;22;20008;-75
2022/10/11 10:13:20;;;;;;;0.30;0.30;;;11.60;85.70;;;;;;6276005;22;20093;-76
2022/10/11 10:15:49;;;;;;;1.70;0.40;;;11.70;85.50;;;;;;6276620;22;20057;-75
2022/10/11 10:18:26;;;;;;;0.75;0.30;;;11.60;85.50;;;;;;6275940;22;20061;-75
2022/10/11 10:20:56;;;;;;;0.30;0.20;;;11.70;85.40;;;;;;6276495;22;20030;-75
2022/10/11 10:23:30;;;;;;;0.60;0.40;;;11.80;85.40;;;;;;6248457;22;20177;-75
2022/10/11 10:26:18;;;;;;;0.57;0.40;;;11.80;85.30;;;;;;6248564;22;20066;-75
2022/10/11 10:29:19;;;;;;;0.30;0.30;;;11.90;85.30;;;;;;6275451;22;20012;-75
2022/10/11 10:31:53;;;;;;;2.05;0.50;;;11.90;85.10;;;;;;6248554;22;20011;-75
2022/10/11 10:34:26;;;;;;;0.90;0.38;;;11.90;85.00;;;;;;6275617;22;20007;-75
2022/10/11 10:36:56;;;;;;;0.68;0.35;;;12.00;85.00;;;;;;6249393;22;20010;-75
2022/10/11 10:39:30;;;;;;;0.20;0.20;;;12.00;84.90;;;;;;6248386;22;20328;-75
2022/10/11 10:41:56;;;;;;;1.52;0.30;;;12.10;84.80;;;;;;6248438;22;20033;-75
2022/10/11 10:44:22;;;;;;;0.30;0.20;;;12.10;84.70;;;;;;6223637;22;20065;-75
2022/10/11 10:47:14;;;;;;;0.88;0.47;;;12.20;84.80;;;;;;6275627;22;20007;-75
2022/10/11 10:49:54;;;;;;;0.30;0.30;;;12.30;84.70;;;;;;6275458;22;20066;-75
2022/10/11 10:52:44;;;;;;;1.27;0.32;;;12.40;84.50;;;;;;6275588;22;20082;-75
2022/10/11 10:55:36;;;;;;;0.40;0.25;;;12.50;84.30;;;;;;6254437;22;20038;-75
2022/10/11 10:58:19;;;;;;;;;;;12.70;84.10;;;;;;6249192;22;20010;-75
2022/10/11 11:00:49;;;;;;;0.95;0.35;;;12.60;83.90;;;;;;6248610;22;19938;-75
2022/10/11 11:03:23;;;;;;;1.85;0.50;;;12.70;83.80;;;;;;6275633;22;20444;-75
2022/10/11 11:06:07;;;;;;;0.45;0.30;;;12.70;83.40;;;;;;6224083;22;20011;-76
2022/10/11 11:08:59;;;;;;;1.08;0.32;;;12.80;83.40;;;;;;6251409;22;20064;-75
2022/10/11 11:11:50;;;;;;;1.58;0.55;;;12.90;83.40;;;;;;6254548;22;20371;-75
2022/10/11 11:14:35;;;;;;;0.80;0.30;;;12.90;83.10;;;;;;6253405;22;20003;-75
2022/10/11 11:17:20;;;;;;;1.27;0.38;;;13.00;83.00;;;;;;6275859;22;20004;-76
2022/10/11 11:20:10;;;;;;;0.52;0.30;;;13.00;83.00;;;;;;6275424;22;20008;-75
2022/10/11 11:23:11;;;;;;;0.98;0.40;;;13.00;83.00;;;;;;6252135;22;20073;-75
2022/10/11 11:26:11;;;;;;;1.45;0.50;;;13.00;82.90;;;;;;6230327;22;20046;-75
2022/10/11 11:29:01;;;;;;;0.30;0.30;;;13.10;82.80;;;;;;6275481;22;20011;-75
2022/10/11 11:31:51;;;;;;;0.45;0.28;;;13.30;82.50;;;;;;6251439;22;20007;-75
2022/10/11 11:34:30;;;;;;;0.20;0.20;;;13.30;82.20;;;;;;6274510;22;20069;-75
2022/10/11 11:37:05;;;;;;;1.08;0.40;;;13.30;82.00;;;;;;6248200;22;20004;-75
2022/10/11 11:39:42;;;;;;;0.80;0.40;;;13.30;82.00;;;;;;6248455;22;20019;-75
2022/10/11 11:42:17;;;;;;;1.05;0.38;;;13.50;81.90;;;;;;6248094;22;20424;-75
2022/10/11 11:44:46;;;;;;;0.68;0.35;;;13.50;81.70;;;;;;6275475;22;20388;-75
2022/10/11 11:47:35;;;;;;;0.47;0.43;;;13.70;81.70;;;;;;6275396;22;20011;-75
2022/10/11 11:50:04;;;;;;;0.93;0.40;;;13.70;81.40;;;;;;6253065;22;20086;-75
2022/10/11 11:52:40;;;;;;;0.80;0.28;;;13.70;81.30;;;;;;6248775;22;20012;-74
2022/10/11 11:55:34;;;;;;;0.70;0.40;;;13.80;81.10;;;;;;6248516;22;20031;-75
2022/10/11 11:58:32;;;;;;;0.75;0.30;;;13.90;81.00;;;;;;6231596;22;20011;-75
2022/10/11 12:01:12;;;;;;;0.30;0.30;;;13.90;80.80;;;;;;6275272;22;20034;-75
2022/10/11 12:03:43;;;;;;;0.70;0.30;;;14.00;80.80;;;;;;6276026;22;20011;-75
2022/10/11 12:06:21;;;;;;;0.60;0.30;;;14.10;80.70;;;;;;6249284;22;20050;-74
2022/10/11 12:08:56;;;;;;;0.43;0.30;;;14.30;80.40;;;;;;6275647;22;20343;-75
2022/10/11 12:11:29;;;;;;;1.10;0.30;;;14.30;80.00;;;;;;6248231;22;20008;-75
2022/10/11 12:13:56;;;;;;;0.32;0.20;;;14.40;79.90;;;;;;6248065;22;20004;-75
2022/10/11 12:16:22;;;;;;;0.98;0.30;;;14.40;79.80;;;;;;6275034;22;20077;-75
2022/10/11 12:19:00;;;;;;;1.20;0.40;;;14.40;79.70;;;;;;6275680;22;20007;-75
2022/10/11 12:21:38;;;;;;;1.20;0.50;;;14.30;79.80;;;;;;6275755;22;20008;-73
2022/10/11 12:24:11;;;;;;;1.85;0.40;;;14.20;79.90;;;;;;6275154;22;20042;-73
2022/10/11 12:26:39;;;;;;;0.38;0.20;;;14.20;80.20;;;;;;6275415;22;20087;-73
2022/10/11 12:29:42;;;;;;;1.00;0.20;;;14.20;80.20;;;;;;6248005;22;20495;-74
2022/10/11 12:32:31;;;;;;;0.80;0.28;;;14.30;80.10;;;;;;6253146;22;20061;-73
2022/10/11 12:35:28;;;;;;;1.65;0.38;;;14.60;79.70;;;;;;6252101;22;20451;-73
2022/10/11 12:38:12;;;;;;;2.05;0.47;;;14.80;79.10;;;;;;6274780;22;20035;-73
2022/10/11 12:40:41;;;;;;;0.40;0.30;;;14.80;78.70;;;;;;6274786;22;20012;-73
2022/10/11 12:43:22;;;;;;;1.85;0.40;;;14.90;78.50;;;;;;6274752;22;20000;-73
2022/10/11 12:45:48;;;;;;;0.90;0.40;;;15.00;78.20;;;;;;6248204;22;20039;-73
2022/10/11 12:48:22;;;;;;;0.85;0.40;;;15.20;78.10;;;;;;6275649;22;20428;-74
2022/10/11 12:51:10;;;;;;;1.08;0.45;;;15.20;77.90;;;;;;6249174;22;20008;-74
2022/10/11 12:54:10;;;;;;;0.70;0.38;;;15.30;77.80;;;;;;6248714;22;20004;-74
2022/10/11 12:57:00;;;;;;;0.90;0.30;;;15.40;77.70;;;;;;6276056;22;20062;-73
2022/10/11 12:59:26;;;;;;;1.05;0.28;;;15.50;77.30;;;;;;6275678;22;20019;-73
2022/10/11 13:01:54;;;;;;;0.38;0.38;;;15.60;77.30;;;;;;6276037;22;20020;-73
2022/10/11 13:04:27;;;;;;;1.20;0.30;;;15.70;77.20;;;;;;6276061;22;20008;-72
2022/10/11 13:06:57;;;;;;;0.82;0.30;;;15.80;76.80;;;;;;6275870;22;20336;-73
2022/10/11 13:09:34;;;;;;;0.50;0.20;;;15.90;76.80;;;;;;6275425;22;21082;-73
2022/10/11 13:12:08;;;;;;;1.42;0.47;;;16.00;76.50;;;;;;6276146;22;20038;-73
2022/10/11 13:14:37;;;;;;;1.13;0.38;;;16.00;76.30;;;;;;6248783;22;20380;-73
2022/10/11 13:17:15;;;;;;;1.13;0.40;;;16.00;76.30;;;;;;6275835;22;20061;-75
2022/10/11 13:19:42;;;;;;;0.43;0.32;;;16.10;76.30;;;;;;6275761;22;20012;-75
2022/10/11 13:22:22;;;;;;;0.85;0.47;;;16.00;76.30;;;;;;6248469;22;20007;-75